createdAt,value
2022-12-14T00:00:27.903Z,-3.07
2022-12-14T00:01:00.405Z,-3.10
2022-12-14T00:01:32.997Z,-3.07
2022-12-14T00:02:05.593Z,-3.07
2022-12-14T00:02:38.091Z,-3.08
2022-12-14T00:03:10.664Z,-3.07
2022-12-14T00:03:42.942Z,-3.07
2022-12-14T00:04:15.494Z,-3.04
2022-12-14T00:04:47.893Z,-3.02
2022-12-14T00:05:20.388Z,-3.02
2022-12-14T00:05:52.865Z,-2.99
2022-12-14T00:06:25.296Z,-2.97
2022-12-14T00:06:57.744Z,-2.99
2022-12-14T00:07:30.206Z,-2.97
2022-12-14T00:08:02.707Z,-3.00
2022-12-14T00:08:41.325Z,-3.00
2022-12-14T00:09:07.852Z,-3.00
2022-12-14T00:09:40.267Z,-3.04
2022-12-14T00:10:12.898Z,-3.00
2022-12-14T00:10:45.442Z,-2.99
2022-12-14T00:11:17.982Z,-3.02
2022-12-14T00:11:50.446Z,-3.02
2022-12-14T00:12:22.896Z,-3.00
2022-12-14T00:12:55.425Z,-2.97
2022-12-14T00:13:34.641Z,-2.97
2022-12-14T00:14:07.143Z,-3.00
2022-12-14T00:14:39.577Z,-2.96
2022-12-14T00:15:12.035Z,-2.96
2022-12-14T00:15:44.575Z,-2.94
2022-12-14T00:16:17.207Z,-2.94
2022-12-14T00:16:49.616Z,-2.89
2022-12-14T00:17:22.227Z,-2.90
2022-12-14T00:17:54.859Z,-2.92
2022-12-14T00:18:27.671Z,-2.93
2022-12-14T00:18:59.800Z,-2.92
2022-12-14T00:19:32.234Z,-2.89
2022-12-14T00:20:04.771Z,-2.92
2022-12-14T00:20:37.278Z,-2.89
2022-12-14T00:21:10.139Z,-2.87
2022-12-14T00:21:42.676Z,-2.89
2022-12-14T00:22:15.341Z,-2.86
2022-12-14T00:22:47.905Z,-2.92
2022-12-14T00:23:20.413Z,-2.87
2022-12-14T00:23:52.989Z,-2.89
2022-12-14T00:24:25.513Z,-2.89
2022-12-14T00:24:57.973Z,-2.90
2022-12-14T00:25:30.514Z,-2.89
2022-12-14T00:26:03.013Z,-2.87
2022-12-14T00:26:35.542Z,-2.86
2022-12-14T00:27:08.057Z,-2.85
2022-12-14T00:27:40.589Z,-2.82
2022-12-14T00:28:13.221Z,-2.82
2022-12-14T00:28:45.690Z,-2.81
2022-12-14T00:29:18.196Z,-2.81
2022-12-14T00:29:50.683Z,-2.81
2022-12-14T00:30:23.306Z,-2.79
2022-12-14T00:30:58.355Z,-2.78
2022-12-14T00:31:28.292Z,-2.78
2022-12-14T00:32:00.795Z,-2.81
2022-12-14T00:32:33.340Z,-2.82
2022-12-14T00:33:05.790Z,-2.81
2022-12-14T00:33:38.286Z,-2.79
2022-12-14T00:34:10.738Z,-2.79
2022-12-14T00:34:43.185Z,-2.85
2022-12-14T00:35:15.765Z,-2.82
2022-12-14T00:35:48.294Z,-2.86
2022-12-14T00:36:20.805Z,-2.87
2022-12-14T00:36:53.286Z,-2.90
2022-12-14T00:37:25.720Z,-2.89
2022-12-14T00:37:58.235Z,-2.87
2022-12-14T00:38:30.865Z,-2.87
2022-12-14T00:39:03.203Z,-2.87
2022-12-14T00:39:35.749Z,-2.85
2022-12-14T00:40:08.319Z,-2.89
2022-12-14T00:40:40.809Z,-2.89
2022-12-14T00:41:13.391Z,-2.87
2022-12-14T00:41:45.911Z,-2.86
2022-12-14T00:42:18.369Z,-2.87
2022-12-14T00:42:50.810Z,-2.87
2022-12-14T00:43:23.341Z,-2.86
2022-12-14T00:43:55.799Z,-2.87
2022-12-14T00:44:28.245Z,-2.87
2022-12-14T00:45:00.742Z,-2.87
2022-12-14T00:45:33.234Z,-2.92
2022-12-14T00:46:05.768Z,-2.89
2022-12-14T00:46:38.189Z,-2.92
2022-12-14T00:47:11.263Z,-2.93
2022-12-14T00:47:43.679Z,-2.93
2022-12-14T00:48:16.202Z,-2.92
2022-12-14T00:48:48.708Z,-2.92
2022-12-14T00:49:21.257Z,-2.90
2022-12-14T00:49:53.789Z,-2.93
2022-12-14T00:50:26.360Z,-2.93
2022-12-14T00:50:58.947Z,-2.92
2022-12-14T00:51:31.413Z,-2.90
2022-12-14T00:52:03.937Z,-2.92
2022-12-14T00:52:36.374Z,-2.87
2022-12-14T00:53:08.860Z,-2.90
2022-12-14T00:53:41.440Z,-2.87
2022-12-14T00:54:14.054Z,-2.87
2022-12-14T00:54:46.578Z,-2.87
2022-12-14T00:55:19.190Z,-2.87
2022-12-14T00:55:51.848Z,-2.87
2022-12-14T00:56:24.401Z,-2.89
2022-12-14T00:56:56.881Z,-2.87
2022-12-14T00:57:29.315Z,-2.85
2022-12-14T00:58:01.765Z,-2.87
2022-12-14T00:58:34.285Z,-2.82
2022-12-14T00:59:06.718Z,-2.82
2022-12-14T00:59:39.170Z,-2.87
2022-12-14T01:00:11.608Z,-2.85
2022-12-14T01:00:44.063Z,-2.87
2022-12-14T01:01:16.681Z,-2.86
2022-12-14T01:01:49.306Z,-2.86
2022-12-14T01:02:21.800Z,-2.86
2022-12-14T01:02:54.151Z,-2.82
2022-12-14T01:03:27.117Z,-2.81
2022-12-14T01:03:59.217Z,-2.82
2022-12-14T01:04:32.880Z,-2.82
2022-12-14T01:05:07.013Z,-2.78
2022-12-14T01:05:39.493Z,-2.76
2022-12-14T01:06:11.977Z,-2.75
2022-12-14T01:06:44.500Z,-2.72
2022-12-14T01:07:17.055Z,-2.72
2022-12-14T01:07:49.548Z,-2.72
2022-12-14T01:08:22.073Z,-2.71
2022-12-14T01:08:54.568Z,-2.71
2022-12-14T01:09:27.011Z,-2.72
2022-12-14T01:09:59.493Z,-2.69
2022-12-14T01:10:31.990Z,-2.72
2022-12-14T01:11:04.682Z,-2.71
2022-12-14T01:11:37.181Z,-2.69
2022-12-14T01:12:09.662Z,-2.69
2022-12-14T01:12:42.892Z,-2.68
2022-12-14T01:13:15.472Z,-2.64
2022-12-14T01:13:49.568Z,-2.64
2022-12-14T01:14:20.502Z,-2.63
2022-12-14T01:14:52.996Z,-2.68
2022-12-14T01:15:25.465Z,-2.66
2022-12-14T01:15:57.965Z,-2.64
2022-12-14T01:16:30.456Z,-2.64
2022-12-14T01:17:02.915Z,-2.64
2022-12-14T01:17:35.505Z,-2.63
2022-12-14T01:18:08.016Z,-2.61
2022-12-14T01:18:40.624Z,-2.58
2022-12-14T01:19:13.084Z,-2.60
2022-12-14T01:19:45.521Z,-2.58
2022-12-14T01:20:18.010Z,-2.63
2022-12-14T01:20:50.486Z,-2.63
2022-12-14T01:21:22.997Z,-2.68
2022-12-14T01:21:55.508Z,-2.66
2022-12-14T01:22:28.002Z,-2.66
2022-12-14T01:23:00.510Z,-2.68
2022-12-14T01:23:32.996Z,-2.69
2022-12-14T01:24:05.518Z,-2.66
2022-12-14T01:24:38.020Z,-2.66
2022-12-14T01:25:10.565Z,-2.64
2022-12-14T01:25:43.085Z,-2.66
2022-12-14T01:26:15.557Z,-2.64
2022-12-14T01:26:48.033Z,-2.64
2022-12-14T01:27:20.546Z,-2.66
2022-12-14T01:27:53.045Z,-2.64
2022-12-14T01:28:25.559Z,-2.64
2022-12-14T01:28:57.995Z,-2.63
2022-12-14T01:29:30.491Z,-2.64
2022-12-14T01:30:02.999Z,-2.64
2022-12-14T01:30:35.512Z,-2.64
2022-12-14T01:31:08.028Z,-2.61
2022-12-14T01:31:40.515Z,-2.61
2022-12-14T01:32:13.000Z,-2.63
2022-12-14T01:32:45.517Z,-2.63
2022-12-14T01:33:18.035Z,-2.63
2022-12-14T01:33:50.572Z,-2.64
2022-12-14T01:34:23.137Z,-2.64
2022-12-14T01:34:55.635Z,-2.64
2022-12-14T01:35:28.092Z,-2.68
2022-12-14T01:36:00.572Z,-2.68
2022-12-14T01:36:33.022Z,-2.69
2022-12-14T01:37:05.484Z,-2.68
2022-12-14T01:37:37.953Z,-2.69
2022-12-14T01:38:10.433Z,-2.68
2022-12-14T01:38:42.911Z,-2.69
2022-12-14T01:39:15.478Z,-2.69
2022-12-14T01:39:48.044Z,-2.68
2022-12-14T01:40:20.571Z,-2.68
2022-12-14T01:40:53.118Z,-2.66
2022-12-14T01:41:25.635Z,-2.66
2022-12-14T01:41:58.163Z,-2.64
2022-12-14T01:42:30.637Z,-2.66
2022-12-14T01:43:03.137Z,-2.68
2022-12-14T01:43:35.703Z,-2.68
2022-12-14T01:44:08.134Z,-2.66
2022-12-14T01:44:40.592Z,-2.68
2022-12-14T01:45:13.031Z,-2.68
2022-12-14T01:45:45.466Z,-2.71
2022-12-14T01:46:18.035Z,-2.71
2022-12-14T01:46:50.537Z,-2.68
2022-12-14T01:47:22.983Z,-2.71
2022-12-14T01:47:55.426Z,-2.72
2022-12-14T01:48:27.876Z,-2.72
2022-12-14T01:49:00.428Z,-2.72
2022-12-14T01:49:32.912Z,-2.74
2022-12-14T01:50:05.351Z,-2.74
2022-12-14T01:50:37.811Z,-2.75
2022-12-14T01:51:10.261Z,-2.76
2022-12-14T01:51:42.712Z,-2.78
2022-12-14T01:52:15.303Z,-2.78
2022-12-14T01:52:47.848Z,-2.79
2022-12-14T01:53:20.284Z,-2.81
2022-12-14T01:53:52.726Z,-2.81
2022-12-14T01:54:25.171Z,-2.82
2022-12-14T01:54:57.704Z,-2.85
2022-12-14T01:55:30.174Z,-2.85
2022-12-14T01:56:02.623Z,-2.86
2022-12-14T01:56:35.098Z,-2.86
2022-12-14T01:57:07.631Z,-2.87
2022-12-14T01:57:40.205Z,-2.86
2022-12-14T01:58:12.718Z,-2.87
2022-12-14T01:58:45.237Z,-2.86
2022-12-14T01:59:17.759Z,-2.85
2022-12-14T01:59:50.270Z,-2.86
2022-12-14T02:00:22.878Z,-2.87
2022-12-14T02:00:55.377Z,-2.86
2022-12-14T02:01:27.876Z,-2.85
2022-12-14T02:02:00.327Z,-2.85
2022-12-14T02:02:32.835Z,-2.85
2022-12-14T02:03:05.290Z,-2.85
2022-12-14T02:03:37.755Z,-2.85
2022-12-14T02:04:10.224Z,-2.82
2022-12-14T02:04:42.741Z,-2.85
2022-12-14T02:05:15.231Z,-2.85
2022-12-14T02:05:47.717Z,-2.85
2022-12-14T02:06:20.364Z,-2.82
2022-12-14T02:06:56.418Z,-2.82
2022-12-14T02:07:25.273Z,-2.82
2022-12-14T02:07:57.726Z,-2.87
2022-12-14T02:08:30.180Z,-2.86
2022-12-14T02:09:02.645Z,-2.86
2022-12-14T02:09:35.104Z,-2.87
2022-12-14T02:10:07.584Z,-2.89
2022-12-14T02:10:40.095Z,-2.90
2022-12-14T02:11:12.626Z,-2.93
2022-12-14T02:11:45.083Z,-2.93
2022-12-14T02:12:17.702Z,-2.92
2022-12-14T02:12:50.206Z,-2.93
2022-12-14T02:13:22.742Z,-2.93
2022-12-14T02:13:55.330Z,-2.93
2022-12-14T02:14:27.738Z,-2.93
2022-12-14T02:15:00.230Z,-2.90
2022-12-14T02:15:32.707Z,-2.90
2022-12-14T02:16:05.297Z,-2.93
2022-12-14T02:16:37.897Z,-2.92
2022-12-14T02:17:10.247Z,-2.90
2022-12-14T02:17:42.693Z,-2.89
2022-12-14T02:18:15.187Z,-2.87
2022-12-14T02:18:47.609Z,-2.90
2022-12-14T02:19:20.120Z,-2.92
2022-12-14T02:19:52.607Z,-2.86
2022-12-14T02:20:25.064Z,-2.87
2022-12-14T02:20:57.582Z,-2.90
2022-12-14T02:21:30.053Z,-2.89
2022-12-14T02:22:02.478Z,-2.86
2022-12-14T02:22:34.947Z,-2.87
2022-12-14T02:23:07.399Z,-2.87
2022-12-14T02:23:39.911Z,-2.87
2022-12-14T02:24:12.462Z,-2.90
2022-12-14T02:24:44.882Z,-2.87
2022-12-14T02:25:17.558Z,-2.87
2022-12-14T02:25:50.106Z,-2.89
2022-12-14T02:26:22.642Z,-2.86
2022-12-14T02:26:55.130Z,-2.87
2022-12-14T02:27:27.595Z,-2.87
2022-12-14T02:28:00.038Z,-2.86
2022-12-14T02:28:32.480Z,-2.87
2022-12-14T02:29:04.943Z,-2.87
2022-12-14T02:29:37.411Z,-2.85
2022-12-14T02:30:09.907Z,-2.82
2022-12-14T02:30:42.395Z,-2.85
2022-12-14T02:31:14.888Z,-2.85
2022-12-14T02:31:48.879Z,-2.87
2022-12-14T02:32:19.960Z,-2.86
2022-12-14T02:32:52.425Z,-2.89
2022-12-14T02:33:25.184Z,-2.85
2022-12-14T02:33:57.494Z,-2.86
2022-12-14T02:34:30.144Z,-2.85
2022-12-14T02:35:02.650Z,-2.86
2022-12-14T02:35:35.185Z,-2.86
2022-12-14T02:36:07.710Z,-2.86
2022-12-14T02:36:40.238Z,-2.82
2022-12-14T02:37:12.710Z,-2.85
2022-12-14T02:37:45.122Z,-2.82
2022-12-14T02:38:17.610Z,-2.82
2022-12-14T02:38:50.086Z,-2.85
2022-12-14T02:39:22.554Z,-2.85
2022-12-14T02:39:55.027Z,-2.82
2022-12-14T02:40:27.461Z,-2.85
2022-12-14T02:40:59.890Z,-2.85
2022-12-14T02:41:32.463Z,-2.85
2022-12-14T02:42:05.026Z,-2.82
2022-12-14T02:42:37.579Z,-2.82
2022-12-14T02:43:10.100Z,-2.79
2022-12-14T02:43:42.675Z,-2.85
2022-12-14T02:44:15.147Z,-2.85
2022-12-14T02:44:47.663Z,-2.86
2022-12-14T02:45:20.161Z,-2.82
2022-12-14T02:45:52.664Z,-2.87
2022-12-14T02:46:25.206Z,-2.86
2022-12-14T02:46:57.686Z,-2.87
2022-12-14T02:47:30.163Z,-2.87
2022-12-14T02:48:02.640Z,-2.87
2022-12-14T02:48:35.192Z,-2.87
2022-12-14T02:49:07.655Z,-2.86
2022-12-14T02:49:40.111Z,-2.86
2022-12-14T02:50:12.578Z,-2.87
2022-12-14T02:50:45.092Z,-2.86
2022-12-14T02:51:17.571Z,-2.86
2022-12-14T02:51:50.031Z,-2.86
2022-12-14T02:52:22.575Z,-2.82
2022-12-14T02:52:55.008Z,-2.81
2022-12-14T02:53:27.853Z,-2.81
2022-12-14T02:53:59.977Z,-2.79
2022-12-14T02:54:32.606Z,-2.82
2022-12-14T02:55:05.106Z,-2.86
2022-12-14T02:55:37.486Z,-2.87
2022-12-14T02:56:09.931Z,-2.82
2022-12-14T02:56:42.451Z,-2.86
2022-12-14T02:57:14.860Z,-2.87
2022-12-14T02:57:47.324Z,-2.87
2022-12-14T02:58:19.813Z,-2.87
2022-12-14T02:58:52.312Z,-2.85
2022-12-14T02:59:24.850Z,-2.85
2022-12-14T02:59:57.337Z,-2.86
2022-12-14T03:00:29.860Z,-2.87
2022-12-14T03:01:02.358Z,-2.89
2022-12-14T03:01:35.070Z,-2.89
2022-12-14T03:02:07.519Z,-2.87
2022-12-14T03:02:40.058Z,-2.90
2022-12-14T03:03:12.476Z,-2.90
2022-12-14T03:03:44.972Z,-2.89
2022-12-14T03:04:17.410Z,-2.92
2022-12-14T03:04:49.910Z,-2.92
2022-12-14T03:05:22.388Z,-2.92
2022-12-14T03:05:54.835Z,-2.92
2022-12-14T03:06:27.308Z,-2.93
2022-12-14T03:06:59.795Z,-2.92
2022-12-14T03:07:32.316Z,-2.92
2022-12-14T03:08:04.883Z,-2.92
2022-12-14T03:08:37.333Z,-2.93
2022-12-14T03:09:09.771Z,-2.92
2022-12-14T03:09:42.300Z,-2.92
2022-12-14T03:10:14.765Z,-2.92
2022-12-14T03:10:47.270Z,-2.92
2022-12-14T03:11:19.783Z,-2.92
2022-12-14T03:11:52.259Z,-2.93
2022-12-14T03:12:24.770Z,-2.94
2022-12-14T03:12:57.299Z,-2.94
2022-12-14T03:13:30.115Z,-2.94
2022-12-14T03:14:02.368Z,-2.96
2022-12-14T03:14:34.931Z,-2.94
2022-12-14T03:15:07.460Z,-2.93
2022-12-14T03:15:39.951Z,-2.94
2022-12-14T03:16:12.494Z,-2.97
2022-12-14T03:16:44.899Z,-2.96
2022-12-14T03:17:19.677Z,-2.94
2022-12-14T03:17:49.920Z,-2.97
2022-12-14T03:18:22.453Z,-2.96
2022-12-14T03:18:54.929Z,-2.96
2022-12-14T03:19:27.396Z,-2.97
2022-12-14T03:19:59.869Z,-2.97
2022-12-14T03:20:32.373Z,-2.97
2022-12-14T03:21:04.850Z,-2.97
2022-12-14T03:21:37.297Z,-2.96
2022-12-14T03:22:09.726Z,-2.97
2022-12-14T03:22:42.297Z,-2.96
2022-12-14T03:23:14.778Z,-3.00
2022-12-14T03:23:47.342Z,-3.00
2022-12-14T03:24:19.903Z,-3.00
2022-12-14T03:24:52.465Z,-3.00
2022-12-14T03:25:24.980Z,-3.00
2022-12-14T03:25:57.472Z,-3.00
2022-12-14T03:26:30.017Z,-3.00
2022-12-14T03:27:02.530Z,-3.02
2022-12-14T03:27:35.049Z,-3.00
2022-12-14T03:28:07.554Z,-2.99
2022-12-14T03:28:40.046Z,-2.97
2022-12-14T03:29:12.498Z,-3.00
2022-12-14T03:29:44.983Z,-2.99
2022-12-14T03:30:31.729Z,-2.99
2022-12-14T03:31:04.854Z,-2.99
2022-12-14T03:31:22.390Z,-3.02
2022-12-14T03:31:54.875Z,-2.99
2022-12-14T03:32:27.332Z,-2.99
2022-12-14T03:32:59.864Z,-2.96
2022-12-14T03:33:32.356Z,-2.97
2022-12-14T03:34:04.820Z,-2.96
2022-12-14T03:34:37.286Z,-2.97
2022-12-14T03:35:09.752Z,-2.97
2022-12-14T03:35:42.268Z,-3.00
2022-12-14T03:36:14.730Z,-2.99
2022-12-14T03:36:47.264Z,-2.97
2022-12-14T03:37:19.715Z,-2.96
2022-12-14T03:37:53.438Z,-2.99
2022-12-14T03:38:24.776Z,-2.96
2022-12-14T03:38:57.237Z,-2.97
2022-12-14T03:39:29.735Z,-2.99
2022-12-14T03:40:02.243Z,-2.99
2022-12-14T03:40:34.713Z,-2.97
2022-12-14T03:41:07.192Z,-2.97
2022-12-14T03:41:39.661Z,-2.99
2022-12-14T03:42:12.091Z,-3.02
2022-12-14T03:42:49.345Z,-2.99
2022-12-14T03:43:17.449Z,-2.99
2022-12-14T03:43:50.128Z,-2.99
2022-12-14T03:44:22.508Z,-3.02
2022-12-14T03:44:54.981Z,-2.99
2022-12-14T03:45:27.458Z,-3.00
2022-12-14T03:45:59.912Z,-3.00
2022-12-14T03:46:32.385Z,-3.02
2022-12-14T03:47:04.851Z,-3.00
2022-12-14T03:47:37.382Z,-3.02
2022-12-14T03:48:09.881Z,-3.02
2022-12-14T03:48:42.544Z,-3.04
2022-12-14T03:49:15.108Z,-2.99
2022-12-14T03:49:49.061Z,-2.99
2022-12-14T03:50:20.202Z,-2.99
2022-12-14T03:50:52.706Z,-2.97
2022-12-14T03:51:25.344Z,-2.97
2022-12-14T03:51:57.863Z,-3.00
2022-12-14T03:52:30.384Z,-2.99
2022-12-14T03:53:02.994Z,-2.99
2022-12-14T03:53:35.578Z,-2.97
2022-12-14T03:54:08.062Z,-2.97
2022-12-14T03:54:40.570Z,-2.96
2022-12-14T03:55:13.019Z,-2.97
2022-12-14T03:55:45.464Z,-2.99
2022-12-14T03:56:17.921Z,-3.00
2022-12-14T03:56:53.161Z,-3.00
2022-12-14T03:57:22.822Z,-3.02
2022-12-14T03:57:55.331Z,-3.00
2022-12-14T03:58:27.827Z,-3.04
2022-12-14T03:59:00.336Z,-3.02
2022-12-14T03:59:32.800Z,-3.00
2022-12-14T04:00:05.361Z,-3.02
2022-12-14T04:00:37.897Z,-3.04
2022-12-14T04:01:10.409Z,-3.02
2022-12-14T04:01:43.054Z,-3.02
2022-12-14T04:02:15.643Z,-2.99
2022-12-14T04:02:48.215Z,-3.02
2022-12-14T04:03:20.667Z,-3.02
2022-12-14T04:03:53.131Z,-3.02
2022-12-14T04:04:25.680Z,-3.00
2022-12-14T04:04:58.201Z,-3.04
2022-12-14T04:05:30.697Z,-3.00
2022-12-14T04:06:03.193Z,-3.02
2022-12-14T04:06:35.830Z,-3.00
2022-12-14T04:07:08.371Z,-3.02
2022-12-14T04:07:40.919Z,-3.04
2022-12-14T04:08:13.439Z,-3.02
2022-12-14T04:08:45.914Z,-3.04
2022-12-14T04:09:18.362Z,-3.04
2022-12-14T04:09:50.921Z,-3.04
2022-12-14T04:10:23.473Z,-3.02
2022-12-14T04:10:55.975Z,-3.02
2022-12-14T04:11:28.510Z,-3.04
2022-12-14T04:12:00.943Z,-3.02
2022-12-14T04:12:33.462Z,-3.05
2022-12-14T04:13:05.912Z,-3.04
2022-12-14T04:13:38.375Z,-3.05
2022-12-14T04:14:10.860Z,-3.04
2022-12-14T04:14:43.436Z,-3.04
2022-12-14T04:15:15.964Z,-3.04
2022-12-14T04:15:48.552Z,-3.07
2022-12-14T04:16:21.030Z,-3.05
2022-12-14T04:16:53.577Z,-3.07
2022-12-14T04:17:26.008Z,-3.05
2022-12-14T04:17:58.553Z,-3.07
2022-12-14T04:18:31.062Z,-3.07
2022-12-14T04:19:03.544Z,-3.07
2022-12-14T04:19:36.031Z,-3.07
2022-12-14T04:20:08.476Z,-3.08
2022-12-14T04:20:40.929Z,-3.07
2022-12-14T04:21:13.361Z,-3.10
2022-12-14T04:21:45.825Z,-3.08
2022-12-14T04:22:18.288Z,-3.08
2022-12-14T04:22:50.841Z,-3.10
2022-12-14T04:23:23.424Z,-3.10
2022-12-14T04:23:55.873Z,-3.07
2022-12-14T04:24:28.342Z,-3.10
2022-12-14T04:25:00.827Z,-3.08
2022-12-14T04:25:33.385Z,-3.11
2022-12-14T04:26:05.896Z,-3.11
2022-12-14T04:26:38.472Z,-3.11
2022-12-14T04:27:10.962Z,-3.13
2022-12-14T04:27:43.396Z,-3.14
2022-12-14T04:28:15.934Z,-3.14
2022-12-14T04:28:48.555Z,-3.15
2022-12-14T04:29:21.095Z,-3.14
2022-12-14T04:29:53.554Z,-3.14
2022-12-14T04:30:26.103Z,-3.17
2022-12-14T04:30:58.581Z,-3.17
2022-12-14T04:31:31.137Z,-3.17
2022-12-14T04:32:03.607Z,-3.18
2022-12-14T04:32:36.126Z,-3.15
2022-12-14T04:33:08.592Z,-3.20
2022-12-14T04:33:41.103Z,-3.17
2022-12-14T04:34:13.631Z,-3.18
2022-12-14T04:34:46.082Z,-3.17
2022-12-14T04:35:18.676Z,-3.18
2022-12-14T04:35:51.138Z,-3.18
2022-12-14T04:36:23.632Z,-3.20
2022-12-14T04:36:56.217Z,-3.17
2022-12-14T04:37:28.722Z,-3.18
2022-12-14T04:38:01.168Z,-3.17
2022-12-14T04:38:33.640Z,-3.20
2022-12-14T04:39:06.157Z,-3.20
2022-12-14T04:39:38.649Z,-3.18
2022-12-14T04:40:11.124Z,-3.22
2022-12-14T04:40:43.564Z,-3.20
2022-12-14T04:41:16.063Z,-3.18
2022-12-14T04:41:48.501Z,-3.18
2022-12-14T04:42:20.994Z,-3.20
2022-12-14T04:42:53.505Z,-3.20
2022-12-14T04:43:26.241Z,-3.18
2022-12-14T04:43:58.457Z,-3.23
2022-12-14T04:44:31.010Z,-3.20
2022-12-14T04:45:03.482Z,-3.20
2022-12-14T04:45:35.962Z,-3.20
2022-12-14T04:46:08.549Z,-3.18
2022-12-14T04:46:41.064Z,-3.17
2022-12-14T04:47:13.461Z,-3.15
2022-12-14T04:47:45.957Z,-3.15
2022-12-14T04:48:18.411Z,-3.18
2022-12-14T04:48:50.943Z,-3.15
2022-12-14T04:49:24.043Z,-3.14
2022-12-14T04:49:56.559Z,-3.13
2022-12-14T04:50:29.039Z,-3.13
2022-12-14T04:51:01.555Z,-3.14
2022-12-14T04:51:34.042Z,-3.15
2022-12-14T04:52:06.484Z,-3.15
2022-12-14T04:52:38.926Z,-3.15
2022-12-14T04:53:11.388Z,-3.15
2022-12-14T04:53:43.890Z,-3.14
2022-12-14T04:54:16.345Z,-3.14
2022-12-14T04:54:48.812Z,-3.17
2022-12-14T04:55:21.261Z,-3.18
2022-12-14T04:55:53.700Z,-3.18
2022-12-14T04:56:26.276Z,-3.18
2022-12-14T04:56:58.777Z,-3.18
2022-12-14T04:57:31.253Z,-3.20
2022-12-14T04:58:03.763Z,-3.20
2022-12-14T04:58:36.268Z,-3.18
2022-12-14T04:59:08.761Z,-3.18
2022-12-14T04:59:41.232Z,-3.20
2022-12-14T05:00:13.697Z,-3.22
2022-12-14T05:00:46.168Z,-3.22
2022-12-14T05:01:18.770Z,-3.22
2022-12-14T05:01:51.299Z,-3.22
2022-12-14T05:02:23.867Z,-3.22
2022-12-14T05:02:56.293Z,-3.20
2022-12-14T05:03:29.083Z,-3.18
2022-12-14T05:04:02.242Z,-3.17
2022-12-14T05:04:34.708Z,-3.20
2022-12-14T05:05:07.144Z,-3.17
2022-12-14T05:05:39.567Z,-3.22
2022-12-14T05:06:12.103Z,-3.20
2022-12-14T05:06:44.622Z,-3.22
2022-12-14T05:07:17.156Z,-3.23
2022-12-14T05:07:49.609Z,-3.25
2022-12-14T05:08:22.079Z,-3.23
2022-12-14T05:08:54.569Z,-3.23
2022-12-14T05:09:27.063Z,-3.20
2022-12-14T05:09:59.580Z,-3.25
2022-12-14T05:10:32.098Z,-3.25
2022-12-14T05:11:30.147Z,-3.25
2022-12-14T05:11:54.023Z,-3.25
2022-12-14T05:12:09.659Z,-3.29
2022-12-14T05:12:42.104Z,-3.31
2022-12-14T05:13:14.644Z,-3.29
2022-12-14T05:13:49.024Z,-3.29
2022-12-14T05:14:19.671Z,-3.31
2022-12-14T05:14:53.117Z,-3.31
2022-12-14T05:15:25.708Z,-3.31
2022-12-14T05:15:58.197Z,-3.31
2022-12-14T05:16:30.708Z,-3.31
2022-12-14T05:17:08.109Z,-3.31
2022-12-14T05:17:35.603Z,-3.31
2022-12-14T05:18:08.094Z,-3.31
2022-12-14T05:18:40.584Z,-3.32
2022-12-14T05:19:13.092Z,-3.32
2022-12-14T05:19:45.616Z,-3.32
2022-12-14T05:20:18.132Z,-3.32
2022-12-14T05:20:50.680Z,-3.36
2022-12-14T05:21:30.240Z,-3.35
2022-12-14T05:22:02.713Z,-3.33
2022-12-14T05:22:35.182Z,-3.32
2022-12-14T05:23:07.693Z,-3.33
2022-12-14T05:23:40.250Z,-3.33
2022-12-14T05:24:12.854Z,-3.36
2022-12-14T05:24:45.263Z,-3.35
2022-12-14T05:25:17.761Z,-3.35
2022-12-14T05:25:50.366Z,-3.38
2022-12-14T05:26:22.910Z,-3.38
2022-12-14T05:26:55.429Z,-3.38
2022-12-14T05:27:27.945Z,-3.39
2022-12-14T05:28:00.376Z,-3.38
2022-12-14T05:28:32.860Z,-3.43
2022-12-14T05:29:05.396Z,-3.43
2022-12-14T05:29:37.946Z,-3.41
2022-12-14T05:30:10.536Z,-3.44
2022-12-14T05:30:43.176Z,-3.44
2022-12-14T05:31:15.626Z,-3.46
2022-12-14T05:31:49.364Z,-3.44
2022-12-14T05:32:20.588Z,-3.46
2022-12-14T05:32:53.080Z,-3.46
2022-12-14T05:33:25.860Z,-3.47
2022-12-14T05:33:58.117Z,-3.49
2022-12-14T05:34:30.687Z,-3.46
2022-12-14T05:35:03.154Z,-3.47
2022-12-14T05:35:35.779Z,-3.46
2022-12-14T05:36:08.266Z,-3.49
2022-12-14T05:36:40.776Z,-3.47
2022-12-14T05:37:17.927Z,-3.47
2022-12-14T05:37:45.737Z,-3.47
2022-12-14T05:38:18.177Z,-3.46
2022-12-14T05:38:50.724Z,-3.49
2022-12-14T05:39:23.306Z,-3.47
2022-12-14T05:39:55.804Z,-3.47
2022-12-14T05:40:28.285Z,-3.49
2022-12-14T05:41:00.744Z,-3.49
2022-12-14T05:41:33.272Z,-3.47
2022-12-14T05:42:05.808Z,-3.49
2022-12-14T05:42:42.748Z,-3.49
2022-12-14T05:43:10.770Z,-3.47
2022-12-14T05:43:43.220Z,-3.50
2022-12-14T05:44:15.664Z,-3.50
2022-12-14T05:44:48.110Z,-3.50
2022-12-14T05:45:20.598Z,-3.49
2022-12-14T05:45:53.202Z,-3.50
2022-12-14T05:46:25.589Z,-3.50
2022-12-14T05:46:57.985Z,-3.51
2022-12-14T05:47:30.463Z,-3.50
2022-12-14T05:48:02.987Z,-3.49
2022-12-14T05:48:35.572Z,-3.51
2022-12-14T05:49:08.051Z,-3.50
2022-12-14T05:49:40.541Z,-3.50
2022-12-14T05:50:13.046Z,-3.50
2022-12-14T05:50:45.504Z,-3.46
2022-12-14T05:51:18.057Z,-3.50
2022-12-14T05:51:50.574Z,-3.51
2022-12-14T05:52:23.104Z,-3.50
2022-12-14T05:52:55.594Z,-3.49
2022-12-14T05:53:28.468Z,-3.50
2022-12-14T05:54:00.574Z,-3.50
2022-12-14T05:54:33.124Z,-3.50
2022-12-14T05:55:05.621Z,-3.49
2022-12-14T05:55:38.210Z,-3.49
2022-12-14T05:56:10.685Z,-3.49
2022-12-14T05:56:43.186Z,-3.47
2022-12-14T05:57:15.711Z,-3.47
2022-12-14T05:57:48.188Z,-3.50
2022-12-14T05:58:20.794Z,-3.50
2022-12-14T05:58:53.313Z,-3.49
2022-12-14T05:59:25.850Z,-3.49
2022-12-14T05:59:58.377Z,-3.50
2022-12-14T06:00:30.867Z,-3.49
2022-12-14T06:01:03.462Z,-3.47
2022-12-14T06:01:36.089Z,-3.49
2022-12-14T06:02:08.644Z,-3.50
2022-12-14T06:02:41.063Z,-3.51
2022-12-14T06:03:13.571Z,-3.51
2022-12-14T06:03:46.127Z,-3.47
2022-12-14T06:04:18.716Z,-3.50
2022-12-14T06:04:51.218Z,-3.49
2022-12-14T06:05:23.645Z,-3.49
2022-12-14T06:05:56.162Z,-3.47
2022-12-14T06:06:28.683Z,-3.50
2022-12-14T06:07:01.165Z,-3.46
2022-12-14T06:07:33.640Z,-3.47
2022-12-14T06:08:06.204Z,-3.49
2022-12-14T06:08:38.700Z,-3.46
2022-12-14T06:09:12.233Z,-3.46
2022-12-14T06:09:44.780Z,-3.46
2022-12-14T06:10:17.370Z,-3.41
2022-12-14T06:10:50.088Z,-3.43
2022-12-14T06:11:22.576Z,-3.43
2022-12-14T06:11:55.052Z,-3.43
2022-12-14T06:12:27.621Z,-3.41
2022-12-14T06:13:00.158Z,-3.44
2022-12-14T06:13:32.639Z,-3.43
2022-12-14T06:14:05.091Z,-3.44
2022-12-14T06:14:37.598Z,-3.39
2022-12-14T06:15:10.099Z,-3.44
2022-12-14T06:15:42.618Z,-3.43
2022-12-14T06:16:15.152Z,-3.44
2022-12-14T06:16:47.590Z,-3.43
2022-12-14T06:17:20.115Z,-3.44
2022-12-14T06:17:52.628Z,-3.43
2022-12-14T06:18:25.149Z,-3.47
2022-12-14T06:18:57.676Z,-3.43
2022-12-14T06:19:30.198Z,-3.46
2022-12-14T06:20:03.572Z,-3.47
2022-12-14T06:20:36.086Z,-3.44
2022-12-14T06:21:08.617Z,-3.44
2022-12-14T06:21:41.129Z,-3.43
2022-12-14T06:22:13.603Z,-3.44
2022-12-14T06:22:47.735Z,-3.44
2022-12-14T06:23:18.570Z,-3.44
2022-12-14T06:23:51.039Z,-3.44
2022-12-14T06:24:23.865Z,-3.41
2022-12-14T06:24:57.239Z,-3.47
2022-12-14T06:25:29.728Z,-3.46
2022-12-14T06:26:02.308Z,-3.44
2022-12-14T06:26:34.780Z,-3.44
2022-12-14T06:27:07.237Z,-3.44
2022-12-14T06:27:39.698Z,-3.44
2022-12-14T06:28:12.188Z,-3.44
2022-12-14T06:28:44.654Z,-3.43
2022-12-14T06:29:17.183Z,-3.46
2022-12-14T06:29:49.710Z,-3.44
2022-12-14T06:30:22.293Z,-3.44
2022-12-14T06:30:55.237Z,-3.43
2022-12-14T06:31:27.718Z,-3.43
2022-12-14T06:32:00.126Z,-3.44
2022-12-14T06:32:32.697Z,-3.41
2022-12-14T06:33:05.231Z,-3.43
2022-12-14T06:33:37.773Z,-3.43
2022-12-14T06:34:10.215Z,-3.41
2022-12-14T06:34:42.711Z,-3.43
2022-12-14T06:35:15.162Z,-3.41
2022-12-14T06:35:47.652Z,-3.39
2022-12-14T06:36:20.093Z,-3.38
2022-12-14T06:36:52.563Z,-3.39
2022-12-14T06:37:25.029Z,-3.38
2022-12-14T06:37:57.501Z,-3.36
2022-12-14T06:38:29.989Z,-3.36
2022-12-14T06:39:02.530Z,-3.36
2022-12-14T06:39:35.049Z,-3.35
2022-12-14T06:40:07.529Z,-3.36
2022-12-14T06:40:39.983Z,-3.36
2022-12-14T06:41:12.466Z,-3.35
2022-12-14T06:41:44.918Z,-3.36
2022-12-14T06:42:17.425Z,-3.36
2022-12-14T06:42:49.930Z,-3.33
2022-12-14T06:43:22.449Z,-3.35
2022-12-14T06:43:54.970Z,-3.33
2022-12-14T06:44:27.473Z,-3.35
2022-12-14T06:44:59.991Z,-3.35
2022-12-14T06:45:32.559Z,-3.35
2022-12-14T06:46:07.550Z,-3.32
2022-12-14T06:46:37.631Z,-3.35
2022-12-14T06:47:10.056Z,-3.35
2022-12-14T06:47:42.502Z,-3.32
2022-12-14T06:48:14.989Z,-3.32
2022-12-14T06:48:47.496Z,-3.32
2022-12-14T06:49:19.951Z,-3.33
2022-12-14T06:49:52.440Z,-3.35
2022-12-14T06:50:24.902Z,-3.32
2022-12-14T06:50:57.357Z,-3.35
2022-12-14T06:51:29.876Z,-3.32
2022-12-14T06:52:02.388Z,-3.33
2022-12-14T06:52:34.899Z,-3.32
2022-12-14T06:53:07.392Z,-3.33
2022-12-14T06:53:39.902Z,-3.33
2022-12-14T06:54:12.406Z,-3.32
2022-12-14T06:54:44.910Z,-3.32
2022-12-14T06:55:17.361Z,-3.33
2022-12-14T06:55:49.809Z,-3.32
2022-12-14T06:56:22.345Z,-3.32
2022-12-14T06:56:54.865Z,-3.33
2022-12-14T06:57:27.371Z,-3.31
2022-12-14T06:57:59.867Z,-3.32
2022-12-14T06:58:32.677Z,-3.31
2022-12-14T06:59:04.887Z,-3.28